Time;durP1;ratioP1;P1;durP2;ratioP2;P2;SDS_P1;SDS_P2;PMS_P1;PMS_P2;Temp;Humidity;BMP_temperature;BMP_pressure;BME280_temperature;BME280_humidity;BME280_pressure;Samples;Min_cycle;Max_cycle;Signal;HPM_P1;HPM_P2
2022/09/07 00:01:42;;;;;;;5.30;2.50;;;;;;;7.56;63.40;101167.19;84794;1325;22633;-73
2022/09/07 00:03:54;;;;;;;5.40;3.30;;;;;;;7.55;63.67;101164.08;84839;1327;22609;-72
2022/09/07 00:06:07;;;;;;;4.50;3.00;;;;;;;7.54;63.69;101162.36;84838;1327;22992;-73
2022/09/07 00:08:17;;;;;;;11.50;3.00;;;;;;;7.51;63.37;101154.94;84843;1329;22605;-73
2022/09/07 00:10:26;;;;;;;5.60;2.80;;;;;;;7.47;63.62;101154.81;84831;1327;25294;-73
2022/09/07 00:12:35;;;;;;;4.40;2.70;;;;;;;7.45;63.61;101145.82;84800;1326;22587;-75
2022/09/07 00:14:44;;;;;;;4.70;3.20;;;;;;;7.44;63.58;101144.95;84798;1328;22744;-75
2022/09/07 00:16:53;;;;;;;5.60;2.90;;;;;;;7.41;63.63;101144.64;84801;1327;22623;-73
2022/09/07 00:19:03;;;;;;;3.80;2.50;;;;;;;7.36;63.80;101141.74;84809;1327;22616;-72
2022/09/07 00:21:11;;;;;;;;;;;;;;;7.34;63.86;101142.81;84845;1327;22714;-73
2022/09/07 00:23:20;;;;;;;4.40;3.10;;;;;;;7.33;63.73;101143.52;84835;1329;22591;-74
2022/09/07 00:25:29;;;;;;;5.20;2.30;;;;;;;7.36;63.48;101142.27;84785;1327;22579;-74
2022/09/07 00:27:38;;;;;;;4.00;2.60;;;;;;;7.39;63.51;101140.32;84812;1327;24623;-74
2022/09/07 00:29:47;;;;;;;5.70;3.30;;;;;;;7.40;63.27;101138.23;84814;1327;22590;-73
2022/09/07 00:31:56;;;;;;;4.30;2.40;;;;;;;7.40;63.40;101137.73;84755;1331;22608;-73
2022/09/07 00:34:06;;;;;;;7.00;2.90;;;;;;;7.40;63.40;101134.77;84822;1328;22588;-73
2022/09/07 00:36:15;;;;;;;4.70;3.40;;;;;;;7.38;63.46;101135.13;84820;1326;22604;-72
2022/09/07 00:38:25;;;;;;;4.00;2.80;;;;;;;7.41;63.32;101135.79;84739;1324;22726;-73
2022/09/07 00:40:33;;;;;;;3.60;2.80;;;;;;;7.44;63.27;101134.36;84756;1327;22597;-74
2022/09/07 00:42:42;;;;;;;3.80;2.90;;;;;;;7.45;63.14;101133.30;84790;1327;23799;-74
2022/09/07 00:45:14;;;;;;;4.70;2.80;;;;;;;7.45;63.01;101131.92;84824;1327;22915;-74
2022/09/07 00:47:25;;;;;;;4.20;3.30;;;;;;;7.43;63.05;101131.41;84838;1327;24425;-74
2022/09/07 00:49:34;;;;;;;6.30;3.50;;;;;;;7.42;63.09;101133.52;84806;1327;22579;-73
2022/09/07 00:51:46;;;;;;;4.60;2.90;;;;;;;7.41;62.75;101137.01;84838;1329;22697;-74
2022/09/07 00:53:58;;;;;;;7.00;4.00;;;;;;;7.41;62.86;101133.89;84885;1328;23935;-73
2022/09/07 00:56:07;;;;;;;6.70;3.40;;;;;;;7.38;63.02;101132.01;84838;1328;23015;-73
2022/09/07 00:58:15;;;;;;;6.70;2.80;;;;;;;7.37;63.23;101132.37;84762;1326;25565;-75
2022/09/07 01:00:24;;;;;;;6.30;2.80;;;;;;;7.35;63.35;101126.48;84818;1326;24917;-74
2022/09/07 01:02:34;;;;;;;3.90;2.80;;;;;;;7.34;63.11;101131.71;84803;1321;22583;-74
2022/09/07 01:04:42;;;;;;;3.80;2.50;;;;;;;7.34;63.11;101129.11;84807;1322;22595;-74
2022/09/07 01:06:51;;;;;;;3.90;2.60;;;;;;;7.33;63.26;101125.13;84841;1325;22610;-73
2022/09/07 01:09:03;;;;;;;3.30;2.60;;;;;;;7.32;63.25;101129.98;84737;1326;22619;-72
2022/09/07 01:11:13;;;;;;;7.60;3.70;;;;;;;7.34;63.18;101127.03;84768;1326;22804;-73
2022/09/07 01:13:31;;;;;;;7.30;3.20;;;;;;;7.33;63.40;101136.40;84746;1329;23046;-70
2022/09/07 01:15:50;;;;;;;6.20;3.50;;;;;;;7.32;63.18;101135.38;84668;1329;22631;-72
2022/09/07 01:18:07;;;;;;;3.50;2.50;;;;;;;7.31;63.45;101134.88;84716;1326;22586;-72
2022/09/07 01:20:49;;;;;;;7.90;3.30;;;;;;;7.28;63.52;101133.17;83983;1327;1003166;-72
2022/09/07 01:23:33;;;;;;;7.00;3.10;;;;;;;7.28;63.62;101135.77;84793;1325;24054;-73
2022/09/07 01:25:47;;;;;;;7.10;3.10;;;;;;;7.28;63.77;101133.86;84582;1330;22618;-73
2022/09/07 01:28:14;;;;;;;6.20;2.60;;;;;;;7.26;63.76;101132.33;84669;1330;25229;-72
2022/09/07 01:30:23;;;;;;;5.60;3.40;;;;;;;7.21;63.74;101133.60;84719;1325;22746;-71
2022/09/07 01:32:43;;;;;;;7.20;3.70;;;;;;;7.16;64.00;101134.00;84800;1325;22586;-70
2022/09/07 01:34:54;;;;;;;3.80;2.60;;;;;;;7.10;64.10;101129.41;84728;1330;22708;-72
2022/09/07 01:37:07;;;;;;;3.90;2.70;;;;;;;7.04;64.16;101125.48;84807;1324;22582;-72
2022/09/07 01:39:16;;;;;;;9.80;3.10;;;;;;;7.00;64.60;101126.39;84739;1327;24034;-72
2022/09/07 01:41:29;;;;;;;3.70;2.60;;;;;;;6.96;64.65;101127.46;84833;1328;22637;-71
2022/09/07 01:43:43;;;;;;;5.30;3.10;;;;;;;6.93;64.79;101129.06;84773;1325;22615;-72
2022/09/07 01:45:52;;;;;;;5.50;2.80;;;;;;;6.91;64.64;101131.00;84794;1326;22740;-72
2022/09/07 01:48:05;;;;;;;5.40;3.10;;;;;;;6.90;64.87;101132.40;84660;1327;22814;-73
2022/09/07 01:50:19;;;;;;;4.70;2.70;;;;;;;6.88;65.06;101132.23;84710;1329;25288;-73
2022/09/07 01:52:34;;;;;;;4.90;3.20;;;;;;;6.87;65.20;101132.61;84762;1327;22600;-72
2022/09/07 01:54:46;;;;;;;6.50;2.90;;;;;;;6.85;65.19;101135.23;84767;1326;22884;-72
2022/09/07 01:56:58;;;;;;;3.60;2.60;;;;;;;6.83;65.29;101131.94;84728;1329;23085;-73
2022/09/07 01:59:09;;;;;;;4.40;3.00;;;;;;;6.80;65.40;101130.42;84772;1327;22706;-73
2022/09/07 02:01:22;;;;;;;6.70;2.80;;;;;;;6.78;65.50;101131.64;84716;1329;24294;-72
2022/09/07 02:03:33;;;;;;;4.60;2.60;;;;;;;6.74;65.54;101131.88;84772;1326;22627;-73
2022/09/07 02:05:45;;;;;;;6.30;3.00;;;;;;;6.68;65.77;101136.79;84724;1330;22585;-74
2022/09/07 02:07:56;;;;;;;5.10;2.80;;;;;;;6.63;65.94;101133.70;84732;1326;23923;-73
2022/09/07 02:10:09;;;;;;;5.20;2.80;;;;;;;6.60;65.96;101130.96;84760;1326;22648;-72
2022/09/07 02:12:22;;;;;;;3.90;3.00;;;;;;;6.57;66.33;101137.23;84793;1327;22614;-73
2022/09/07 02:14:34;;;;;;;5.10;2.70;;;;;;;6.53;66.18;101135.70;84797;1329;22620;-72
2022/09/07 02:16:49;;;;;;;3.30;2.60;;;;;;;6.48;66.47;101136.09;84764;1326;22599;-73
2022/09/07 02:18:59;;;;;;;6.50;2.90;;;;;;;6.45;66.90;101131.96;84809;1324;22624;-72
2022/09/07 02:21:09;;;;;;;4.10;2.60;;;;;;;6.41;66.94;101131.30;84773;1323;22655;-73
2022/09/07 02:23:22;;;;;;;5.00;2.80;;;;;;;6.37;67.26;101126.48;84701;1328;22625;-73
2022/09/07 02:25:36;;;;;;;3.80;2.30;;;;;;;6.36;67.36;101122.86;84696;1329;22616;-73
2022/09/07 02:27:48;;;;;;;3.90;2.50;;;;;;;6.36;67.39;101125.30;84734;1329;22620;-73
2022/09/07 02:29:57;;;;;;;7.10;3.30;;;;;;;6.32;67.66;101125.14;84784;1326;22593;-73
2022/09/07 02:32:06;;;;;;;6.00;2.90;;;;;;;6.28;67.58;101124.14;84692;1329;22603;-72
2022/09/07 02:34:15;;;;;;;5.60;2.80;;;;;;;6.24;67.80;101121.41;84703;1330;22778;-73
2022/09/07 02:36:26;;;;;;;6.60;2.90;;;;;;;6.18;68.07;101119.54;84745;1326;22611;-73
2022/09/07 02:38:35;;;;;;;3.60;2.60;;;;;;;6.12;68.17;101115.08;84762;1326;22602;-72
2022/09/07 02:40:49;;;;;;;4.40;2.80;;;;;;;6.08;68.35;101111.83;84705;1326;26475;-70
2022/09/07 02:42:58;;;;;;;5.60;3.10;;;;;;;6.02;68.58;101108.92;84778;1326;22610;-73
2022/09/07 02:45:10;;;;;;;5.50;2.80;;;;;;;5.97;68.87;101103.95;84599;1329;22799;-72
2022/09/07 02:47:35;;;;;;;5.40;2.70;;;;;;;5.93;68.85;101109.33;84774;1326;24331;-73
2022/09/07 02:50:22;;;;;;;4.70;2.80;;;;;;;5.90;69.29;101109.87;84732;1326;25291;-73
2022/09/07 02:52:38;;;;;;;2.70;2.20;;;;;;;5.87;69.43;101106.77;84630;1330;22614;-72
2022/09/07 02:54:57;;;;;;;5.00;2.90;;;;;;;5.87;69.41;101104.85;84775;1326;22620;-73
2022/09/07 02:57:11;;;;;;;5.40;2.80;;;;;;;5.86;69.68;101099.30;84711;1326;22603;-73
2022/09/07 02:59:33;;;;;;;5.50;2.70;;;;;;;5.84;69.93;101098.81;84778;1330;22594;-72
2022/09/07 03:01:47;;;;;;;4.30;2.60;;;;;;;5.80;69.98;101095.55;84775;1326;25288;-72
2022/09/07 03:04:00;;;;;;;5.50;2.90;;;;;;;5.75;70.04;101096.96;84757;1327;22621;-73
2022/09/07 03:06:13;;;;;;;5.50;2.80;;;;;;;5.70;70.00;101097.52;84720;1327;22611;-74
2022/09/07 03:08:24;;;;;;;6.90;3.60;;;;;;;5.65;70.21;101100.66;84755;1320;22596;-74
2022/09/07 03:10:33;;;;;;;4.30;2.80;;;;;;;5.60;70.24;101102.95;84776;1327;22589;-74
2022/09/07 03:12:46;;;;;;;3.60;2.40;;;;;;;5.55;70.43;101101.58;84679;1328;22597;-72
2022/09/07 03:14:55;;;;;;;4.80;2.90;;;;;;;5.50;70.49;101096.43;84720;1329;22744;-73
2022/09/07 03:17:04;;;;;;;3.40;2.20;;;;;;;5.45;70.68;101091.77;84758;1330;22583;-72
2022/09/07 03:19:13;;;;;;;3.90;2.60;;;;;;;5.41;70.78;101091.11;84732;1326;22946;-72
2022/09/07 03:21:22;;;;;;;3.30;2.90;;;;;;;5.40;71.06;101090.95;84738;1324;22750;-73
2022/09/07 03:23:31;;;;;;;4.60;2.30;;;;;;;5.40;71.04;101092.66;84715;1326;25335;-72
2022/09/07 03:25:40;;;;;;;3.30;2.40;;;;;;;5.39;71.45;101093.54;84762;1326;22579;-72
2022/09/07 03:27:49;;;;;;;3.30;2.60;;;;;;;5.38;71.08;101095.63;84727;1324;22620;-72
2022/09/07 03:29:58;;;;;;;3.60;2.50;;;;;;;5.33;71.16;101098.41;84613;1326;23080;-73
2022/09/07 03:32:07;;;;;;;3.30;2.10;;;;;;;5.29;71.58;101097.41;84810;1330;25452;-74
2022/09/07 03:34:15;;;;;;;4.30;3.00;;;;;;;5.28;71.56;101098.62;84759;1330;22632;-73
2022/09/07 03:36:27;;;;;;;4.00;2.90;;;;;;;5.28;71.69;101096.36;84794;1326;22607;-73
2022/09/07 03:38:35;;;;;;;3.90;2.30;;;;;;;5.26;71.59;101094.30;84726;1327;22609;-72
2022/09/07 03:40:44;;;;;;;4.80;2.50;;;;;;;5.27;71.51;101096.02;84794;1329;22593;-72
2022/09/07 03:42:53;;;;;;;4.80;2.80;;;;;;;5.28;71.97;101097.93;84801;1326;22597;-73
2022/09/07 03:45:02;;;;;;;6.20;2.80;;;;;;;5.28;71.80;101095.85;84816;1326;22597;-73
2022/09/07 03:47:11;;;;;;;4.20;2.60;;;;;;;5.30;71.81;101101.20;84820;1327;24351;-73
2022/09/07 03:49:20;;;;;;;3.30;2.30;;;;;;;5.30;71.97;101097.91;84814;1327;22828;-73
2022/09/07 03:51:28;;;;;;;4.00;2.50;;;;;;;5.31;72.15;101099.10;84739;1329;22623;-74
2022/09/07 03:53:39;;;;;;;4.90;2.60;;;;;;;5.31;72.01;101098.41;83953;1330;1003414;-73
2022/09/07 03:55:57;;;;;;;3.80;2.40;;;;;;;5.32;72.10;101099.29;84677;1328;22589;-72
2022/09/07 03:58:06;;;;;;;3.80;2.60;;;;;;;5.29;71.96;101093.07;84642;1329;22590;-72
2022/09/07 04:00:16;;;;;;;6.70;3.20;;;;;;;5.28;72.03;101097.92;84646;1328;22628;-73
2022/09/07 04:02:25;;;;;;;5.20;2.50;;;;;;;5.28;72.17;101098.96;84675;1331;23932;-72
2022/09/07 04:04:34;;;;;;;4.80;2.90;;;;;;;5.26;72.09;101099.14;84658;1329;22596;-72
2022/09/07 04:06:43;;;;;;;3.80;2.90;;;;;;;5.25;72.20;101097.75;84656;1329;22672;-73
2022/09/07 04:08:52;;;;;;;5.80;3.00;;;;;;;5.29;72.16;101093.60;84641;1328;22587;-73
2022/09/07 04:11:01;;;;;;;3.80;2.80;;;;;;;5.31;72.30;101095.48;84664;1328;22709;-73
2022/09/07 04:13:10;;;;;;;6.20;2.50;;;;;;;5.31;72.31;101097.55;84669;1328;22579;-72
2022/09/07 04:15:19;;;;;;;4.00;2.60;;;;;;;5.30;72.47;101098.77;84711;1327;22790;-72
2022/09/07 04:17:28;;;;;;;3.10;2.40;;;;;;;5.31;72.44;101102.73;84687;1329;26029;-74
2022/09/07 04:19:36;;;;;;;4.20;2.70;;;;;;;5.30;72.43;101105.52;84682;1328;24281;-73
2022/09/07 04:21:45;;;;;;;5.40;2.70;;;;;;;5.30;72.58;101103.45;84708;1328;22593;-73
2022/09/07 04:23:55;;;;;;;4.40;2.60;;;;;;;5.28;72.69;101102.42;84682;1329;25463;-73
2022/09/07 04:26:04;;;;;;;3.70;2.80;;;;;;;5.26;72.70;101101.90;84706;1329;23883;-73
2022/09/07 04:28:12;;;;;;;5.60;2.50;;;;;;;5.27;73.01;101106.75;84730;1331;22720;-75
2022/09/07 04:30:21;;;;;;;4.20;2.20;;;;;;;5.29;73.22;101107.44;84670;1331;22715;-73
2022/09/07 04:32:30;;;;;;;8.30;3.00;;;;;;;5.31;73.00;101109.31;84669;1324;25458;-74
2022/09/07 04:34:39;;;;;;;4.80;2.20;;;;;;;5.34;73.23;101106.20;84697;1329;22590;-74
2022/09/07 04:36:48;;;;;;;5.80;3.40;;;;;;;5.37;73.32;101106.71;84666;1329;24167;-71
2022/09/07 04:38:59;;;;;;;8.10;3.00;;;;;;;5.40;73.48;101108.76;84621;1329;25453;-72
2022/09/07 04:41:10;;;;;;;5.50;2.50;;;;;;;5.44;73.46;101107.70;84629;1328;22616;-71
2022/09/07 04:43:19;;;;;;;5.20;3.30;;;;;;;5.48;73.63;101110.11;84600;1329;22590;-72
2022/09/07 04:45:29;;;;;;;11.30;2.80;;;;;;;5.51;73.63;101107.14;84638;1326;22593;-72
2022/09/07 04:51:46;;;;;;;3.90;2.40;;;;;;;5.62;74.07;101106.23;84880;1313;22616;-72
2022/09/07 04:53:57;;;;;;;4.60;2.60;;;;;;;5.69;73.83;101111.02;84749;1327;24267;-72
2022/09/07 04:56:06;;;;;;;5.30;3.10;;;;;;;5.75;74.04;101108.73;84733;1327;25252;-71
2022/09/07 04:58:14;;;;;;;6.50;2.90;;;;;;;5.81;73.99;101111.48;84656;1329;22616;-72
2022/09/07 05:00:23;;;;;;;6.70;2.50;;;;;;;5.87;73.92;101104.85;84783;1327;22668;-73
2022/09/07 05:02:32;;;;;;;5.80;2.70;;;;;;;5.94;74.32;101108.81;84748;1327;23924;-73
2022/09/07 05:04:41;;;;;;;5.10;3.10;;;;;;;6.02;74.15;101108.59;84680;1330;25315;-71
2022/09/07 05:06:50;;;;;;;5.40;2.80;;;;;;;6.11;74.38;101109.73;84289;1330;535219;-72
2022/09/07 05:09:00;;;;;;;6.10;2.40;;;;;;;6.22;74.52;101111.02;84742;1329;22601;-72
2022/09/07 05:11:09;;;;;;;4.10;2.70;;;;;;;6.35;74.94;101116.64;84684;1329;24224;-72
2022/09/07 05:13:18;;;;;;;6.80;2.80;;;;;;;6.48;74.70;101117.55;84830;1327;25314;-73
2022/09/07 05:15:27;;;;;;;3.20;2.10;;;;;;;6.60;74.67;101117.10;84780;1327;22611;-73
2022/09/07 05:17:36;;;;;;;4.00;2.70;;;;;;;6.73;74.82;101115.23;84765;1328;22841;-72
2022/09/07 05:19:44;;;;;;;5.90;2.60;;;;;;;6.89;75.63;101120.43;84731;1327;22639;-73
2022/09/07 05:21:53;;;;;;;6.80;2.80;;;;;;;7.44;78.88;101120.82;84676;1328;25067;-73
2022/09/07 05:24:03;;;;;;;4.20;2.20;;;;;;;8.96;81.92;101109.98;84733;1327;24270;-73
2022/09/07 05:26:13;;;;;;;7.70;3.00;;;;;;;10.74;78.73;101104.16;84722;1328;22560;-74
2022/09/07 05:28:22;;;;;;;4.10;2.10;;;;;;;12.47;73.90;101093.98;84789;1327;22574;-72
2022/09/07 05:30:31;;;;;;;3.90;2.70;;;;;;;14.03;68.05;101088.68;84684;1324;22583;-72
2022/09/07 05:32:41;;;;;;;4.90;2.20;;;;;;;15.40;62.42;101089.06;84746;1328;22585;-72
2022/09/07 05:34:50;;;;;;;5.40;2.60;;;;;;;16.61;58.41;101087.73;84756;1327;22603;-73
2022/09/07 05:36:59;;;;;;;5.50;2.70;;;;;;;17.63;54.85;101081.38;84737;1327;23050;-72
2022/09/07 05:39:08;;;;;;;6.80;3.20;;;;;;;18.46;52.23;101090.41;84708;1328;23214;-72
2022/09/07 05:41:20;;;;;;;4.80;3.20;;;;;;;18.84;49.40;101087.58;84740;1326;22613;-71
2022/09/07 05:43:29;;;;;;;4.60;2.70;;;;;;;18.57;47.19;101090.80;84601;1329;22583;-73
2022/09/07 05:45:38;;;;;;;10.80;3.20;;;;;;;18.18;46.86;101090.42;84743;1326;25260;-72
2022/09/07 05:47:50;;;;;;;7.40;3.10;;;;;;;17.73;46.42;101086.15;84773;1329;22608;-72
2022/09/07 05:49:58;;;;;;;8.90;4.00;;;;;;;17.24;46.61;101087.44;84815;1325;22865;-72
2022/09/07 05:52:07;;;;;;;5.40;2.80;;;;;;;16.82;46.67;101084.72;84673;1321;22884;-72
2022/09/07 05:54:16;;;;;;;8.20;3.40;;;;;;;16.64;46.99;101086.00;84688;1330;22581;-70
2022/09/07 05:56:24;;;;;;;8.90;3.70;;;;;;;17.25;47.37;101088.59;84688;1330;24252;-72
2022/09/07 05:58:33;;;;;;;7.50;3.70;;;;;;;18.34;47.58;101089.31;84715;1329;23981;-73
2022/09/07 06:00:42;;;;;;;5.70;3.00;;;;;;;19.58;45.56;101084.88;84663;1330;25617;-73
2022/09/07 06:02:51;;;;;;;3.90;2.50;;;;;;;20.86;42.34;101080.73;84665;1329;22606;-72
2022/09/07 06:04:59;;;;;;;5.30;2.60;;;;;;;21.95;40.00;101074.89;84597;1329;22703;-73
2022/09/07 06:07:09;;;;;;;4.00;2.90;;;;;;;23.03;37.68;101074.61;84651;1329;22620;-72
2022/09/07 06:09:18;;;;;;;6.50;3.20;;;;;;;23.89;34.96;101071.77;84654;1328;25273;-72
2022/09/07 06:11:27;;;;;;;5.70;2.50;;;;;;;24.66;32.41;101068.52;84672;1324;22592;-72
2022/09/07 06:13:37;;;;;;;5.20;3.00;;;;;;;25.34;31.39;101067.15;84660;1330;22642;-71
2022/09/07 06:15:46;;;;;;;6.50;3.00;;;;;;;26.08;30.32;101064.27;84618;1332;22648;-72
2022/09/07 06:17:54;;;;;;;5.10;2.60;;;;;;;26.22;29.82;101064.09;84675;1329;22861;-72
2022/09/07 06:20:04;;;;;;;3.30;2.20;;;;;;;26.08;28.82;101063.02;84679;1329;22637;-72
2022/09/07 06:22:12;;;;;;;;;;;;;;;26.13;28.28;101061.07;84723;1329;22669;-72
2022/09/07 06:24:21;;;;;;;5.00;2.20;;;;;;;25.66;28.67;101055.90;84655;1329;22618;-72
2022/09/07 06:26:30;;;;;;;4.70;2.40;;;;;;;24.92;29.37;101059.30;84651;1330;22550;-72
2022/09/07 06:28:39;;;;;;;9.10;2.80;;;;;;;24.13;30.26;101051.81;84630;1329;22582;-71
2022/09/07 06:30:48;;;;;;;7.30;2.40;;;;;;;23.42;30.06;101048.39;84674;1329;22658;-73
2022/09/07 06:32:57;;;;;;;3.40;2.10;;;;;;;22.75;30.69;101049.59;84644;1328;22655;-73
2022/09/07 06:35:08;;;;;;;5.60;1.70;;;;;;;22.16;31.14;101048.84;84662;1330;23038;-73
2022/09/07 06:37:18;;;;;;;4.80;1.90;;;;;;;21.58;31.78;101050.66;84708;1329;22600;-72
2022/09/07 06:39:27;;;;;;;8.80;3.40;;;;;;;21.12;32.02;101046.13;84714;1328;23957;-72
2022/09/07 06:41:39;;;;;;;2.50;1.80;;;;;;;20.69;31.57;101047.43;84702;1330;22597;-72
2022/09/07 06:43:48;;;;;;;2.60;1.90;;;;;;;20.24;32.04;101046.20;84688;1320;22857;-72
2022/09/07 06:45:57;;;;;;;5.00;2.10;;;;;;;19.89;32.02;101048.02;84566;1329;22600;-69
2022/09/07 06:48:06;;;;;;;3.60;1.80;;;;;;;19.58;32.20;101049.84;84622;1328;22648;-72
2022/09/07 06:50:16;;;;;;;2.70;1.80;;;;;;;19.28;32.71;101052.15;84688;1329;22577;-71
2022/09/07 06:52:25;;;;;;;6.10;1.90;;;;;;;18.99;33.08;101051.82;84769;1328;22582;-72
2022/09/07 06:54:33;;;;;;;7.10;1.70;;;;;;;18.77;33.51;101051.45;84746;1327;22674;-72
2022/09/07 06:56:42;;;;;;;6.10;1.80;;;;;;;18.62;34.18;101055.17;84636;1330;22589;-72
2022/09/07 06:58:55;;;;;;;3.20;1.70;;;;;;;18.49;33.55;101051.67;84654;1326;22595;-71
2022/09/07 07:01:08;;;;;;;4.00;1.30;;;;;;;18.41;34.12;101049.55;84759;1328;23915;-71
2022/09/07 07:03:18;;;;;;;4.90;1.10;;;;;;;18.40;33.95;101052.58;84781;1326;22592;-72
2022/09/07 07:05:27;;;;;;;3.90;1.30;;;;;;;18.34;33.71;101051.33;84761;1327;22648;-72
2022/09/07 07:07:35;;;;;;;2.60;1.70;;;;;;;18.40;33.87;101052.04;84756;1326;22574;-71
2022/09/07 07:09:45;;;;;;;2.90;1.40;;;;;;;18.61;33.15;101057.31;84743;1327;22770;-72
2022/09/07 07:12:00;;;;;;;5.20;1.90;;;;;;;18.93;33.36;101062.45;84772;1328;22629;-72
2022/09/07 07:14:15;;;;;;;1.70;1.10;;;;;;;19.28;32.83;101067.89;84689;1330;22601;-73
2022/09/07 07:16:24;;;;;;;1.40;0.90;;;;;;;19.42;32.64;101071.39;84761;1327;22649;-72
2022/09/07 07:18:32;;;;;;;3.70;1.40;;;;;;;19.46;32.60;101066.58;84803;1327;22651;-72
2022/09/07 07:20:42;;;;;;;3.80;1.30;;;;;;;19.47;32.56;101066.65;84761;1327;22590;-72
2022/09/07 07:22:54;;;;;;;6.90;1.40;;;;;;;19.43;31.69;101072.96;84762;1321;22705;-74
2022/09/07 07:25:03;;;;;;;3.70;1.00;;;;;;;19.40;32.18;101080.04;84758;1327;23034;-71
2022/09/07 07:27:11;;;;;;;3.90;1.20;;;;;;;19.35;31.44;101091.14;84763;1327;22583;-71
2022/09/07 07:29:20;;;;;;;1.90;1.00;;;;;;;19.32;31.63;101090.96;84777;1327;22845;-72
2022/09/07 07:31:31;;;;;;;2.50;1.40;;;;;;;19.37;32.03;101091.91;84823;1330;22624;-72
2022/09/07 07:33:40;;;;;;;2.90;1.10;;;;;;;19.43;31.62;101095.55;84677;1329;22598;-72
2022/09/07 07:35:49;;;;;;;5.50;1.10;;;;;;;19.51;32.31;101097.74;84783;1327;24388;-72
2022/09/07 07:37:58;;;;;;;5.20;1.60;;;;;;;19.79;32.11;101098.41;84820;1327;22594;-72
2022/09/07 07:40:08;;;;;;;3.00;1.30;;;;;;;20.32;31.56;101094.03;84794;1327;22679;-72
2022/09/07 07:42:17;;;;;;;1.00;0.90;;;;;;;20.86;30.43;101091.63;84767;1327;22619;-72
2022/09/07 07:44:25;;;;;;;1.90;0.80;;;;;;;21.36;30.56;101088.80;84753;1326;22555;-71
2022/09/07 07:46:35;;;;;;;1.30;1.10;;;;;;;21.84;29.08;101082.66;84754;1327;22595;-72
2022/09/07 07:48:47;;;;;;;6.00;1.00;;;;;;;22.31;28.22;101076.16;84648;1330;22600;-72
2022/09/07 07:51:02;;;;;;;6.60;1.20;;;;;;;22.89;28.53;101080.00;84733;1327;22606;-71
2022/09/07 07:53:11;;;;;;;1.80;0.80;;;;;;;23.68;27.18;101078.36;84780;1327;22585;-72
2022/09/07 07:55:20;;;;;;;2.10;1.10;;;;;;;24.43;25.66;101076.48;84749;1330;25414;-72
2022/09/07 07:57:28;;;;;;;2.90;0.80;;;;;;;25.12;24.78;101070.03;84777;1327;24215;-73
2022/09/07 07:59:38;;;;;;;2.20;0.80;;;;;;;25.72;22.92;101069.16;84756;1328;22618;-73
2022/09/07 08:01:47;;;;;;;1.60;0.70;;;;;;;26.25;22.96;101070.23;84758;1327;22615;-72
2022/09/07 08:03:56;;;;;;;3.60;0.60;;;;;;;26.86;22.43;101071.11;84753;1327;25509;-72
2022/09/07 08:06:10;;;;;;;2.60;0.80;;;;;;;27.50;21.94;101069.30;84719;1327;23911;-72
2022/09/07 08:08:19;;;;;;;6.00;0.90;;;;;;;28.18;21.48;101057.55;84769;1327;23946;-75
2022/09/07 08:10:28;;;;;;;3.40;0.90;;;;;;;28.75;20.95;101054.42;84678;1328;22574;-74
2022/09/07 08:12:39;;;;;;;4.10;0.60;;;;;;;29.21;19.64;101053.13;84813;1326;22667;-70
2022/09/07 08:14:47;;;;;;;;;;;;;;;29.46;19.13;101046.54;84701;1329;22564;-70
2022/09/07 08:16:57;;;;;;;2.60;0.70;;;;;;;29.60;18.66;101046.48;84756;1327;22585;-72
2022/09/07 08:19:06;;;;;;;2.10;0.90;;;;;;;29.94;19.23;101044.94;84769;1327;25234;-71
2022/09/07 08:21:16;;;;;;;1.20;1.00;;;;;;;30.38;19.04;101047.98;84716;1329;25453;-71
2022/09/07 08:23:24;;;;;;;1.80;0.70;;;;;;;30.76;17.87;101044.50;84697;1330;22585;-71
2022/09/07 08:25:33;;;;;;;1.30;0.50;;;;;;;31.11;17.58;101039.42;84741;1327;22837;-71
2022/09/07 08:27:42;;;;;;;1.40;0.60;;;;;;;31.31;16.90;101039.60;84773;1327;22590;-70
2022/09/07 08:29:52;;;;;;;2.80;0.80;;;;;;;31.42;17.42;101039.98;84669;1328;23049;-72
2022/09/07 08:32:01;;;;;;;3.10;0.70;;;;;;;31.68;16.94;101038.46;84762;1324;22587;-71
2022/09/07 08:34:10;;;;;;;5.60;0.90;;;;;;;31.69;16.82;101037.03;84738;1327;25236;-71
2022/09/07 08:36:20;;;;;;;2.50;0.70;;;;;;;31.90;16.81;101029.48;84751;1322;22580;-70
2022/09/07 08:38:30;;;;;;;2.00;0.80;;;;;;;32.11;16.60;101028.80;84712;1322;25482;-73
2022/09/07 08:40:40;;;;;;;2.50;0.90;;;;;;;32.23;15.84;101027.98;84656;1329;22618;-74
2022/09/07 08:42:59;;;;;;;2.10;0.80;;;;;;;32.16;16.11;101019.34;84681;1330;23077;-76
2022/09/07 08:45:11;;;;;;;2.50;0.90;;;;;;;32.12;16.26;101019.19;84727;1327;24240;-75
2022/09/07 08:47:28;;;;;;;3.90;0.70;;;;;;;32.20;16.50;101018.16;84659;1328;22711;-74
2022/09/07 08:49:48;;;;;;;1.80;0.80;;;;;;;32.51;16.36;101018.13;84734;1327;23130;-76
2022/09/07 08:51:59;;;;;;;5.30;0.80;;;;;;;32.72;15.84;101007.73;84743;1327;22869;-75
2022/09/07 08:54:08;;;;;;;4.00;1.00;;;;;;;32.69;15.33;101008.66;84758;1327;22603;-71
2022/09/07 08:56:20;;;;;;;5.30;1.00;;;;;;;32.60;15.74;101008.16;84729;1325;24279;-72
2022/09/07 08:58:37;;;;;;;2.10;1.40;;;;;;;32.43;15.37;101002.88;84653;1329;22591;-72
2022/09/07 09:00:45;;;;;;;1.40;0.90;;;;;;;32.38;15.27;101008.08;84743;1322;23167;-71
2022/09/07 09:02:54;;;;;;;3.60;0.80;;;;;;;32.25;15.36;101002.79;84786;1327;23024;-72
2022/09/07 09:05:03;;;;;;;1.60;0.90;;;;;;;32.24;15.54;101003.46;84760;1330;24984;-72
2022/09/07 09:07:18;;;;;;;4.50;1.10;;;;;;;32.32;15.76;101006.77;84703;1323;22623;-71
2022/09/07 09:09:33;;;;;;;1.60;0.80;;;;;;;32.42;15.84;101002.41;84769;1327;22596;-74
2022/09/07 09:11:49;;;;;;;1.70;1.10;;;;;;;32.41;15.46;100994.58;84748;1330;22840;-73
2022/09/07 09:14:05;;;;;;;2.10;0.80;;;;;;;32.46;15.76;100989.86;84795;1327;22592;-73
2022/09/07 09:16:18;;;;;;;1.10;0.70;;;;;;;32.32;14.46;100984.30;84793;1327;22831;-73
2022/09/07 09:18:39;;;;;;;0.90;0.50;;;;;;;32.15;14.79;100980.34;84758;1327;22603;-73
2022/09/07 09:20:50;;;;;;;2.30;0.50;;;;;;;32.10;14.51;100984.59;84738;1322;23051;-72
2022/09/07 09:23:05;;;;;;;1.70;0.70;;;;;;;32.15;14.77;100978.58;84732;1327;23122;-72
2022/09/07 09:25:20;;;;;;;1.50;0.70;;;;;;;32.05;13.77;100980.84;84719;1327;22602;-71
2022/09/07 09:27:29;;;;;;;3.30;0.50;;;;;;;31.57;14.20;100976.58;84716;1325;22921;-72
2022/09/07 09:29:38;;;;;;;1.50;0.50;;;;;;;31.31;14.64;100980.33;84712;1325;22953;-72
2022/09/07 09:31:47;;;;;;;1.00;0.80;;;;;;;31.15;15.11;100970.47;84680;1327;24359;-73
2022/09/07 09:34:13;;;;;;;2.90;0.80;;;;;;;31.17;15.23;100970.19;84770;1327;22587;-74
2022/09/07 09:36:31;;;;;;;2.70;0.70;;;;;;;30.91;15.06;100967.43;84786;1327;22710;-74
2022/09/07 09:38:42;;;;;;;2.40;0.80;;;;;;;30.52;15.20;100968.66;84686;1324;22867;-71
2022/09/07 09:40:54;;;;;;;3.10;1.40;;;;;;;29.97;15.35;100966.88;84779;1326;23959;-72
2022/09/07 09:43:05;;;;;;;2.40;0.70;;;;;;;29.37;15.78;100966.95;84747;1326;23042;-72
2022/09/07 09:45:20;;;;;;;2.10;0.60;;;;;;;28.85;16.16;100973.44;84755;1322;22572;-72
2022/09/07 09:47:32;;;;;;;1.00;0.90;;;;;;;28.37;16.83;100968.80;84730;1326;25259;-73
2022/09/07 09:49:41;;;;;;;1.30;1.10;;;;;;;27.96;17.29;100962.09;84789;1328;22698;-71
2022/09/07 09:51:51;;;;;;;1.90;0.70;;;;;;;27.59;18.07;100963.48;84788;1327;22618;-71
2022/09/07 09:54:04;;;;;;;2.10;0.60;;;;;;;27.12;17.66;100965.07;84737;1327;22599;-72
2022/09/07 09:56:13;;;;;;;3.20;0.80;;;;;;;26.54;17.85;100962.48;84805;1328;25309;-73
2022/09/07 09:58:32;;;;;;;6.30;1.00;;;;;;;26.08;18.84;100956.21;84700;1330;22737;-72
2022/09/07 10:00:41;;;;;;;4.90;1.30;;;;;;;25.76;19.46;100954.21;84771;1326;22603;-72
2022/09/07 10:03:17;;;;;;;1.50;0.90;;;;;;;25.34;19.63;100952.39;84661;1328;22597;-70
2022/09/07 10:05:33;;;;;;;3.90;0.90;;;;;;;24.90;20.20;100956.10;84666;1328;22595;-73
2022/09/07 10:07:41;;;;;;;3.90;0.80;;;;;;;24.59;20.42;100956.73;84726;1327;22595;-72
2022/09/07 10:09:53;;;;;;;3.90;0.70;;;;;;;24.27;20.55;100953.09;84738;1327;22588;-73
2022/09/07 10:12:03;;;;;;;1.30;0.70;;;;;;;24.10;21.38;100951.88;84785;1324;22597;-71
2022/09/07 10:14:16;;;;;;;;;;;;;;;24.02;20.85;100954.30;84727;1327;24100;-72
2022/09/07 10:16:36;;;;;;;2.20;0.70;;;;;;;23.71;20.69;100948.42;84733;1326;24240;-72
2022/09/07 10:18:58;;;;;;;0.60;0.50;;;;;;;23.46;21.17;100951.52;84740;1327;22684;-72